createdAt,value
2022-09-09T00:04:41.631Z,95.18
2022-09-09T00:09:49.361Z,95.37
2022-09-09T00:14:55.706Z,95.40
2022-09-09T00:20:03.253Z,100.00
2022-09-09T00:25:14.038Z,100.00
2022-09-09T00:30:20.767Z,98.19
2022-09-09T00:35:26.259Z,97.01
2022-09-09T00:40:35.374Z,97.71
2022-09-09T00:46:00.789Z,96.02
2022-09-09T00:51:12.279Z,96.03
2022-09-09T00:56:22.631Z,100.00
2022-09-09T01:01:25.517Z,100.00
2022-09-09T01:06:32.722Z,100.00
2022-09-09T01:11:45.044Z,100.00
2022-09-09T01:16:49.073Z,100.00
2022-09-09T01:22:02.665Z,100.00
2022-09-09T01:27:08.630Z,100.00
2022-09-09T01:32:41.042Z,100.00
2022-09-09T01:37:44.217Z,100.00
2022-09-09T01:42:48.338Z,100.00
2022-09-09T01:47:51.375Z,100.00
2022-09-09T01:52:59.783Z,100.00
2022-09-09T01:58:24.576Z,100.00
2022-09-09T02:03:29.242Z,100.00
2022-09-09T02:08:39.205Z,100.00
2022-09-09T02:13:46.001Z,100.00
2022-09-09T02:18:54.269Z,100.00
2022-09-09T02:23:59.195Z,100.00
2022-09-09T02:29:06.951Z,100.00
2022-09-09T02:34:13.012Z,100.00
2022-09-09T02:39:16.110Z,100.00
2022-09-09T02:44:21.303Z,100.00
2022-09-09T02:49:34.761Z,100.00
2022-09-09T02:54:40.234Z,100.00
2022-09-09T02:59:46.058Z,100.00
2022-09-09T03:04:51.909Z,100.00
2022-09-09T03:09:55.929Z,99.85
2022-09-09T03:14:59.974Z,100.00
2022-09-09T03:20:03.610Z,100.00
2022-09-09T03:25:07.778Z,100.00
2022-09-09T03:30:12.901Z,100.00
2022-09-09T03:35:16.475Z,100.00
2022-09-09T03:40:20.380Z,100.00
2022-09-09T03:45:24.290Z,100.00
2022-09-09T03:50:26.941Z,100.00
2022-09-09T03:55:29.352Z,100.00
2022-09-09T04:00:33.542Z,100.00
2022-09-09T04:05:36.117Z,100.00
2022-09-09T04:10:38.782Z,100.00
2022-09-09T04:15:43.174Z,100.00
2022-09-09T04:20:48.450Z,100.00
2022-09-09T04:25:52.376Z,100.00
2022-09-09T04:30:57.902Z,100.00
2022-09-09T04:36:00.667Z,100.00
2022-09-09T04:41:03.155Z,100.00
2022-09-09T04:46:07.902Z,100.00
2022-09-09T04:51:13.508Z,100.00
2022-09-09T04:56:18.406Z,100.00
2022-09-09T05:01:24.813Z,99.55
2022-09-09T05:06:27.365Z,99.61
2022-09-09T05:11:31.886Z,98.43
2022-09-09T05:16:35.703Z,97.97
2022-09-09T05:21:38.301Z,97.59
2022-09-09T05:26:40.816Z,97.67
2022-09-09T05:31:44.803Z,98.06
2022-09-09T05:36:47.974Z,97.54
2022-09-09T05:41:50.565Z,97.16
2022-09-09T05:46:55.331Z,94.56
2022-09-09T05:51:57.909Z,100.00
2022-09-09T05:57:00.563Z,100.00
2022-09-09T06:02:04.440Z,98.75
2022-09-09T06:07:07.954Z,98.27
2022-09-09T06:12:10.880Z,98.27
2022-09-09T06:17:14.653Z,98.08
2022-09-09T06:22:17.656Z,93.96
2022-09-09T06:27:20.099Z,92.65
2022-09-09T06:32:24.085Z,93.41
2022-09-09T06:37:27.903Z,93.70
2022-09-09T06:42:30.529Z,93.48
2022-09-09T06:47:34.662Z,94.76
2022-09-09T06:52:37.109Z,88.54
2022-09-09T06:57:39.493Z,85.44
2022-09-09T07:02:43.385Z,84.43
2022-09-09T07:07:45.829Z,84.15
2022-09-09T07:12:53.615Z,81.98
2022-09-09T07:17:57.631Z,82.46
2022-09-09T07:23:00.338Z,80.63
2022-09-09T07:28:04.328Z,80.91
2022-09-09T07:33:08.694Z,80.35
2022-09-09T07:38:12.123Z,80.88
2022-09-09T07:43:17.370Z,80.66
2022-09-09T07:48:21.284Z,79.92
2022-09-09T07:53:23.992Z,78.49
2022-09-09T07:58:26.384Z,78.14
2022-09-09T08:03:30.208Z,79.13
2022-09-09T08:08:32.689Z,77.93
2022-09-09T08:13:36.414Z,77.58
2022-09-09T08:18:41.081Z,76.06
2022-09-09T08:23:44.513Z,74.29
2022-09-09T08:28:47.124Z,76.72
2022-09-09T08:33:53.256Z,74.16
2022-09-09T08:38:57.469Z,75.07
2022-09-09T08:44:04.330Z,74.74
2022-09-09T08:49:19.506Z,75.81
2022-09-09T08:54:48.381Z,74.16
2022-09-09T08:59:44.910Z,72.28
2022-09-09T09:05:01.240Z,72.50
2022-09-09T09:10:30.536Z,72.16
2022-09-09T09:15:39.841Z,73.07
2022-09-09T09:20:52.796Z,72.84
2022-09-09T09:26:00.406Z,72.11
2022-09-09T09:31:07.099Z,73.25
2022-09-09T09:36:11.078Z,72.76
2022-09-09T09:41:13.431Z,72.79
2022-09-09T09:46:24.406Z,69.79
2022-09-09T09:51:30.226Z,68.20
2022-09-09T09:56:33.452Z,67.74
2022-09-09T10:01:37.214Z,67.76
2022-09-09T10:06:41.655Z,64.21
2022-09-09T10:11:53.376Z,64.67
2022-09-09T10:17:09.834Z,66.19
2022-09-09T10:22:27.711Z,63.30
2022-09-09T10:27:40.556Z,63.10
2022-09-09T10:32:48.814Z,63.10
2022-09-09T10:38:07.930Z,59.01
2022-09-09T10:43:22.097Z,57.84
2022-09-09T10:48:38.221Z,57.58
2022-09-09T10:53:54.477Z,59.54
2022-09-09T10:59:02.533Z,52.93
2022-09-09T11:04:11.842Z,47.58
2022-09-09T11:09:19.302Z,45.83
2022-09-09T11:14:28.839Z,45.37
2022-09-09T11:19:36.829Z,40.51
2022-09-09T11:24:44.053Z,45.19
2022-09-09T11:30:04.371Z,48.45
2022-09-09T11:35:25.262Z,47.32
2022-09-09T11:40:31.503Z,49.44
2022-09-09T11:45:36.777Z,49.45
2022-09-09T11:50:41.430Z,46.54
2022-09-09T11:55:45.639Z,43.95
2022-09-09T12:00:51.026Z,42.82
2022-09-09T12:05:54.227Z,36.68
2022-09-09T12:11:00.488Z,40.21
2022-09-09T12:16:06.220Z,43.63
2022-09-09T12:21:20.585Z,42.52
2022-09-09T12:26:42.916Z,46.13
2022-09-09T12:31:50.758Z,48.28
2022-09-09T12:37:00.280Z,43.47
2022-09-09T12:42:05.123Z,42.58
2022-09-09T12:47:08.083Z,43.14
2022-09-09T12:52:15.742Z,45.81
2022-09-09T12:57:19.782Z,49.49
2022-09-09T13:02:24.351Z,54.53
2022-09-09T13:07:27.440Z,55.12
2022-09-09T13:12:31.364Z,51.20
2022-09-09T13:17:34.360Z,53.78
2022-09-09T13:22:38.541Z,50.92
2022-09-09T13:27:44.154Z,44.01
2022-09-09T13:32:46.726Z,40.48
2022-09-09T13:37:49.204Z,40.45
2022-09-09T13:42:58.098Z,47.04
2022-09-09T13:48:11.093Z,47.19
2022-09-09T13:53:13.739Z,47.16
2022-09-09T13:58:22.613Z,50.50
2022-09-09T14:03:25.195Z,48.31
2022-09-09T14:08:29.341Z,49.86
2022-09-09T14:13:33.890Z,53.10
2022-09-09T14:18:36.623Z,54.96
2022-09-09T14:23:39.922Z,56.41
2022-09-09T14:28:59.589Z,48.75
2022-09-09T14:34:02.325Z,52.22
2022-09-09T14:39:05.296Z,53.51
2022-09-09T14:44:09.101Z,52.52
2022-09-09T14:49:13.749Z,53.83
2022-09-09T14:54:17.217Z,50.72
2022-09-09T14:59:21.012Z,44.98
2022-09-09T15:04:23.649Z,42.73
2022-09-09T15:09:26.346Z,43.30
2022-09-09T15:14:30.209Z,48.97
2022-09-09T15:19:33.246Z,49.53
2022-09-09T15:24:36.403Z,53.03
2022-09-09T15:29:40.316Z,55.10
2022-09-09T15:34:42.988Z,56.36
2022-09-09T15:39:45.475Z,58.90
2022-09-09T15:44:49.277Z,58.58
2022-09-09T15:49:51.633Z,58.84
2022-09-09T15:54:54.129Z,59.27
2022-09-09T15:59:57.885Z,58.60
2022-09-09T16:05:01.285Z,57.92
2022-09-09T16:10:04.385Z,58.19
2022-09-09T16:15:14.346Z,59.02
2022-09-09T16:20:16.828Z,58.23
2022-09-09T16:25:19.679Z,58.36
2022-09-09T16:30:23.439Z,57.89
2022-09-09T16:35:25.872Z,57.97
2022-09-09T16:40:28.389Z,58.81
2022-09-09T16:45:33.120Z,58.32
2022-09-09T16:50:35.810Z,58.58
2022-09-09T16:55:43.394Z,59.16
2022-09-09T17:00:48.615Z,58.91
2022-09-09T17:05:51.742Z,60.09
2022-09-09T17:10:54.227Z,60.10
2022-09-09T17:16:02.772Z,62.02
2022-09-09T17:21:07.583Z,60.89
2022-09-09T17:26:12.436Z,61.64
2022-09-09T17:31:18.714Z,61.35
2022-09-09T17:36:23.818Z,62.34
2022-09-09T17:41:28.608Z,63.87
2022-09-09T17:46:35.278Z,64.95
2022-09-09T17:51:38.307Z,65.84
2022-09-09T17:56:42.125Z,65.27
2022-09-09T18:01:47.800Z,64.66
2022-09-09T18:06:52.146Z,65.78
2022-09-09T18:11:56.679Z,68.81
2022-09-09T18:17:01.719Z,68.48
2022-09-09T18:22:06.878Z,67.86
2022-09-09T18:27:09.319Z,71.52
2022-09-09T18:32:14.987Z,71.66
2022-09-09T18:37:19.642Z,71.64
2022-09-09T18:42:22.121Z,72.74
2022-09-09T18:47:25.966Z,72.08
2022-09-09T18:52:28.452Z,75.44
2022-09-09T18:57:35.838Z,76.63
2022-09-09T19:02:40.370Z,77.14
2022-09-09T19:07:42.757Z,77.60
2022-09-09T19:12:45.221Z,76.75
2022-09-09T19:17:49.156Z,79.09
2022-09-09T19:22:52.508Z,78.99
2022-09-09T19:27:54.940Z,78.85
2022-09-09T19:32:59.158Z,78.50
2022-09-09T19:38:01.837Z,79.08
2022-09-09T19:43:04.378Z,78.95
2022-09-09T19:48:09.306Z,78.54
2022-09-09T19:53:11.823Z,78.21
2022-09-09T19:58:14.750Z,79.16
2022-09-09T20:03:19.958Z,78.66
2022-09-09T20:08:22.723Z,78.85
2022-09-09T20:13:25.334Z,77.82
2022-09-09T20:18:32.268Z,77.76
2022-09-09T20:23:34.980Z,78.13
2022-09-09T20:28:39.169Z,77.87
2022-09-09T20:33:43.529Z,77.35
2022-09-09T20:38:48.214Z,76.42
2022-09-09T20:43:52.031Z,76.15
2022-09-09T20:48:59.691Z,75.84
2022-09-09T20:54:07.107Z,76.36
2022-09-09T20:59:13.118Z,76.27
2022-09-09T21:04:19.018Z,76.15
2022-09-09T21:09:24.580Z,79.17
2022-09-09T21:14:27.935Z,77.70
2022-09-09T21:19:31.695Z,77.59
2022-09-09T21:24:36.253Z,78.23
2022-09-09T21:29:38.697Z,80.43
2022-09-09T21:34:42.748Z,80.48
2022-09-09T21:39:48.082Z,81.27
2022-09-09T21:44:50.553Z,81.65
2022-09-09T21:49:54.341Z,81.07
2022-09-09T21:54:57.918Z,80.34
2022-09-09T22:00:00.341Z,80.43
2022-09-09T22:05:04.361Z,80.02
2022-09-09T22:10:08.547Z,79.87
2022-09-09T22:15:11.320Z,79.70
2022-09-09T22:20:15.140Z,81.43
2022-09-09T22:25:17.578Z,80.54
2022-09-09T22:30:20.454Z,80.07
2022-09-09T22:35:24.426Z,79.65
2022-09-09T22:40:26.962Z,79.67
2022-09-09T22:45:29.676Z,82.17
2022-09-09T22:50:40.119Z,81.10
2022-09-09T22:55:44.724Z,80.94
2022-09-09T23:00:47.335Z,80.21
2022-09-09T23:06:06.665Z,79.96
2022-09-09T23:11:11.035Z,80.27
2022-09-09T23:16:13.756Z,81.17
2022-09-09T23:21:17.574Z,82.40
2022-09-09T23:26:20.832Z,83.33
2022-09-09T23:31:24.834Z,83.42
2022-09-09T23:36:30.593Z,85.09
2022-09-09T23:41:39.940Z,83.47
2022-09-09T23:46:42.638Z,85.62
2022-09-09T23:51:48.740Z,85.24
2022-09-09T23:56:51.197Z,85.74
